Cambridgeport, Massachusetts
Current Conditions -  °F | °C
As of 3:54 PM on Friday 24 Oct 2014 (Local Time) from KBOS Reporting Station
Overcast Overcast  
Wind Chill: 51°   Ceiling: 2300
Heat Index: 51°   Visibility: 10mi
Dew Point: 45°   Wind: 10mph
Humidity: 80%   Direction: 320°NW
Pressure: 29.69"   Gusts: NA
Location:  42.3631°N, 71.1033°W
Report Text: KBOS 241954Z 32009KT 10SM FEW015 OVC023 11/07 A2969 RMK AO2 SLP053 T01060072
Loading
Personal Weather Stations






























Interactive Weather Map
Tropical Storm Tracking
New forecast layout! Learn more

10-Day Weather Forecast

Advertisements
Track Severe Weather on mobile